sensor_id;sensor_type;location;lat;lon;timestamp;P1;durP1;ratioP1;P2;durP2;ratioP2
22515;SDS011;11424;48.860;9.624;2022-12-18T00:01:14;47.8;;;154.6;;
22515;SDS011;11424;48.860;9.624;2022-12-18T00:06:11;50.1;;;166.2;;
22515;SDS011;11424;48.860;9.624;2022-12-18T00:11:12;49.3;;;163.8;;
22515;SDS011;11424;48.860;9.624;2022-12-18T00:16:12;52.4;;;177;;
22515;SDS011;11424;48.860;9.624;2022-12-18T00:21:12;51.2;;;170.1;;
22515;SDS011;11424;48.860;9.624;2022-12-18T00:26:15;47.9;;;157.3;;
22515;SDS011;11424;48.860;9.624;2022-12-18T00:31:12;58.3;;;205.1;;
22515;SDS011;11424;48.860;9.624;2022-12-18T00:36:12;60.8;;;213.6;;
22515;SDS011;11424;48.860;9.624;2022-12-18T00:41:12;52.3;;;183.6;;
22515;SDS011;11424;48.860;9.624;2022-12-18T00:46:11;56.9;;;193.4;;
22515;SDS011;11424;48.860;9.624;2022-12-18T00:51:11;51.8;;;174.7;;
22515;SDS011;11424;48.860;9.624;2022-12-18T00:56:11;55.1;;;189.5;;
22515;SDS011;11424;48.860;9.624;2022-12-18T01:01:11;48.4;;;161.6;;
22515;SDS011;11424;48.860;9.624;2022-12-18T01:06:12;51.5;;;172.3;;
22515;SDS011;11424;48.860;9.624;2022-12-18T01:11:12;58.1;;;193.9;;
22515;SDS011;11424;48.860;9.624;2022-12-18T01:16:11;49;;;167;;
22515;SDS011;11424;48.860;9.624;2022-12-18T01:21:13;48.8;;;160.4;;
22515;SDS011;11424;48.860;9.624;2022-12-18T01:26:12;55.8;;;187.3;;
22515;SDS011;11424;48.860;9.624;2022-12-18T01:31:12;52.5;;;182.6;;
22515;SDS011;11424;48.860;9.624;2022-12-18T01:36:16;56;;;191.6;;
22515;SDS011;11424;48.860;9.624;2022-12-18T01:41:11;52.1;;;174.3;;
22515;SDS011;11424;48.860;9.624;2022-12-18T01:46:11;51;;;172.8;;
22515;SDS011;11424;48.860;9.624;2022-12-18T01:51:11;56.8;;;193.6;;
22515;SDS011;11424;48.860;9.624;2022-12-18T01:56:12;52.5;;;181.8;;
22515;SDS011;11424;48.860;9.624;2022-12-18T02:01:11;47.1;;;164.3;;
22515;SDS011;11424;48.860;9.624;2022-12-18T02:06:13;47.7;;;160.8;;
22515;SDS011;11424;48.860;9.624;2022-12-18T02:11:15;45.5;;;156.7;;
22515;SDS011;11424;48.860;9.624;2022-12-18T02:16:13;53.5;;;180;;
22515;SDS011;11424;48.860;9.624;2022-12-18T02:21:12;56.6;;;195;;
22515;SDS011;11424;48.860;9.624;2022-12-18T02:26:14;55;;;189.8;;
22515;SDS011;11424;48.860;9.624;2022-12-18T02:31:13;62.7;;;220.9;;
22515;SDS011;11424;48.860;9.624;2022-12-18T02:36:11;55;;;191.8;;
22515;SDS011;11424;48.860;9.624;2022-12-18T02:41:12;55;;;189.8;;
22515;SDS011;11424;48.860;9.624;2022-12-18T02:46:21;55;;;189.8;;
22515;SDS011;11424;48.860;9.624;2022-12-18T02:51:15;52.1;;;182.2;;
22515;SDS011;11424;48.860;9.624;2022-12-18T02:56:12;53;;;182.3;;
22515;SDS011;11424;48.860;9.624;2022-12-18T03:01:13;58.2;;;211.3;;
22515;SDS011;11424;48.860;9.624;2022-12-18T03:06:12;57.7;;;203.7;;
22515;SDS011;11424;48.860;9.624;2022-12-18T03:11:12;53;;;179.9;;
22515;SDS011;11424;48.860;9.624;2022-12-18T03:16:12;60.6;;;211.9;;
22515;SDS011;11424;48.860;9.624;2022-12-18T03:21:11;62;;;219;;
22515;SDS011;11424;48.860;9.624;2022-12-18T03:26:12;67;;;237.3;;
22515;SDS011;11424;48.860;9.624;2022-12-18T03:31:12;69.3;;;242.6;;
22515;SDS011;11424;48.860;9.624;2022-12-18T03:36:11;56;;;197.2;;
22515;SDS011;11424;48.860;9.624;2022-12-18T03:41:14;57;;;198.5;;
22515;SDS011;11424;48.860;9.624;2022-12-18T03:46:12;59.8;;;209.7;;
22515;SDS011;11424;48.860;9.624;2022-12-18T03:51:13;67.7;;;242.3;;
22515;SDS011;11424;48.860;9.624;2022-12-18T03:56:11;65.4;;;228.1;;
22515;SDS011;11424;48.860;9.624;2022-12-18T04:01:12;70.1;;;247.2;;
22515;SDS011;11424;48.860;9.624;2022-12-18T04:06:11;226.4;;;634.4;;
22515;SDS011;11424;48.860;9.624;2022-12-18T04:11:11;196.8;;;590.9;;
22515;SDS011;11424;48.860;9.624;2022-12-18T04:16:11;139.1;;;469.7;;
22515;SDS011;11424;48.860;9.624;2022-12-18T04:21:11;130.4;;;446.3;;
22515;SDS011;11424;48.860;9.624;2022-12-18T04:26:11;126.1;;;430.5;;
22515;SDS011;11424;48.860;9.624;2022-12-18T04:31:11;122.4;;;430.8;;
22515;SDS011;11424;48.860;9.624;2022-12-18T04:36:11;119.2;;;420.7;;
22515;SDS011;11424;48.860;9.624;2022-12-18T04:41:12;136;;;465.3;;
22515;SDS011;11424;48.860;9.624;2022-12-18T04:46:11;150.4;;;510.9;;
22515;SDS011;11424;48.860;9.624;2022-12-18T04:51:11;179.9;;;557.4;;
22515;SDS011;11424;48.860;9.624;2022-12-18T04:56:12;163.1;;;528.2;;
22515;SDS011;11424;48.860;9.624;2022-12-18T05:01:12;45.7;;;148.4;;
22515;SDS011;11424;48.860;9.624;2022-12-18T05:06:11;69.3;;;238.1;;
22515;SDS011;11424;48.860;9.624;2022-12-18T05:11:12;70.8;;;237.4;;
22515;SDS011;11424;48.860;9.624;2022-12-18T05:16:11;73.4;;;240.2;;
22515;SDS011;11424;48.860;9.624;2022-12-18T05:21:11;83.5;;;270.3;;
22515;SDS011;11424;48.860;9.624;2022-12-18T05:26:14;90.2;;;297.3;;
22515;SDS011;11424;48.860;9.624;2022-12-18T05:31:12;77.2;;;256;;
22515;SDS011;11424;48.860;9.624;2022-12-18T05:36:11;86.7;;;281.1;;
22515;SDS011;11424;48.860;9.624;2022-12-18T05:41:11;79.2;;;258.6;;
22515;SDS011;11424;48.860;9.624;2022-12-18T05:46:13;82.5;;;270.2;;
22515;SDS011;11424;48.860;9.624;2022-12-18T05:51:12;89.1;;;293.1;;
22515;SDS011;11424;48.860;9.624;2022-12-18T05:56:12;92.3;;;298.3;;
22515;SDS011;11424;48.860;9.624;2022-12-18T06:01:12;78.7;;;253.3;;
22515;SDS011;11424;48.860;9.624;2022-12-18T06:06:12;79.5;;;258.5;;
22515;SDS011;11424;48.860;9.624;2022-12-18T06:11:12;83.3;;;270.4;;
22515;SDS011;11424;48.860;9.624;2022-12-18T06:16:11;83.5;;;282.2;;
22515;SDS011;11424;48.860;9.624;2022-12-18T06:21:11;79.2;;;266.4;;
22515;SDS011;11424;48.860;9.624;2022-12-18T06:26:12;87.1;;;288.6;;
22515;SDS011;11424;48.860;9.624;2022-12-18T06:31:11;89.1;;;287.7;;
22515;SDS011;11424;48.860;9.624;2022-12-18T06:36:12;81.8;;;263.5;;
22515;SDS011;11424;48.860;9.624;2022-12-18T06:41:12;88.7;;;287.1;;
22515;SDS011;11424;48.860;9.624;2022-12-18T06:46:12;90;;;286.5;;
22515;SDS011;11424;48.860;9.624;2022-12-18T06:51:11;75.2;;;250.9;;
22515;SDS011;11424;48.860;9.624;2022-12-18T06:56:12;75.4;;;252.5;;
22515;SDS011;11424;48.860;9.624;2022-12-18T07:01:16;70.6;;;236.8;;
22515;SDS011;11424;48.860;9.624;2022-12-18T07:06:12;80;;;268.5;;
22515;SDS011;11424;48.860;9.624;2022-12-18T07:11:11;85;;;279.7;;
22515;SDS011;11424;48.860;9.624;2022-12-18T07:16:12;100.8;;;323.4;;
22515;SDS011;11424;48.860;9.624;2022-12-18T07:21:12;74.8;;;252;;
22515;SDS011;11424;48.860;9.624;2022-12-18T07:26:12;85;;;286;;
22515;SDS011;11424;48.860;9.624;2022-12-18T07:31:12;80.2;;;266.2;;
22515;SDS011;11424;48.860;9.624;2022-12-18T07:36:12;74.9;;;250.6;;
22515;SDS011;11424;48.860;9.624;2022-12-18T07:41:12;88.5;;;293.3;;
22515;SDS011;11424;48.860;9.624;2022-12-18T07:46:12;94.3;;;299.9;;
22515;SDS011;11424;48.860;9.624;2022-12-18T07:51:12;88.6;;;288.2;;
22515;SDS011;11424;48.860;9.624;2022-12-18T07:56:12;90.2;;;296.2;;
22515;SDS011;11424;48.860;9.624;2022-12-18T08:01:12;71;;;239.6;;
22515;SDS011;11424;48.860;9.624;2022-12-18T08:06:11;105.4;;;334;;
22515;SDS011;11424;48.860;9.624;2022-12-18T08:11:11;84.1;;;287.7;;
22515;SDS011;11424;48.860;9.624;2022-12-18T08:16:11;87.4;;;293.9;;
22515;SDS011;11424;48.860;9.624;2022-12-18T08:21:12;81.3;;;278;;
22515;SDS011;11424;48.860;9.624;2022-12-18T08:26:12;70.4;;;238.6;;
22515;SDS011;11424;48.860;9.624;2022-12-18T08:31:12;78.3;;;267.6;;
22515;SDS011;11424;48.860;9.624;2022-12-18T08:36:11;71.1;;;241;;
22515;SDS011;11424;48.860;9.624;2022-12-18T08:41:12;66.8;;;230.3;;
22515;SDS011;11424;48.860;9.624;2022-12-18T08:46:11;80.7;;;282.5;;
22515;SDS011;11424;48.860;9.624;2022-12-18T08:51:12;71;;;248.8;;
22515;SDS011;11424;48.860;9.624;2022-12-18T08:56:12;70.8;;;248.7;;
22515;SDS011;11424;48.860;9.624;2022-12-18T09:01:12;71.5;;;249.8;;
22515;SDS011;11424;48.860;9.624;2022-12-18T09:06:13;76.5;;;274.6;;
22515;SDS011;11424;48.860;9.624;2022-12-18T09:11:13;83.3;;;296.6;;
22515;SDS011;11424;48.860;9.624;2022-12-18T09:16:12;64.3;;;221.8;;
22515;SDS011;11424;48.860;9.624;2022-12-18T09:21:12;62.3;;;222;;
22515;SDS011;11424;48.860;9.624;2022-12-18T09:26:12;65.2;;;231.6;;
22515;SDS011;11424;48.860;9.624;2022-12-18T09:31:15;72.9;;;260.1;;
22515;SDS011;11424;48.860;9.624;2022-12-18T09:36:12;73.3;;;258.9;;
22515;SDS011;11424;48.860;9.624;2022-12-18T09:41:17;67.7;;;242.1;;
22515;SDS011;11424;48.860;9.624;2022-12-18T09:46:15;67.4;;;239.9;;
22515;SDS011;11424;48.860;9.624;2022-12-18T09:51:13;56.2;;;196.1;;
22515;SDS011;11424;48.860;9.624;2022-12-18T09:56:12;62.5;;;216.9;;
22515;SDS011;11424;48.860;9.624;2022-12-18T10:01:12;50.3;;;177.4;;
22515;SDS011;11424;48.860;9.624;2022-12-18T10:06:13;71.7;;;255.2;;
22515;SDS011;11424;48.860;9.624;2022-12-18T10:11:19;52.3;;;175.9;;
22515;SDS011;11424;48.860;9.624;2022-12-18T10:16:12;53.1;;;177.5;;
22515;SDS011;11424;48.860;9.624;2022-12-18T10:21:13;57.8;;;201.3;;
22515;SDS011;11424;48.860;9.624;2022-12-18T10:26:12;53.3;;;182.9;;
22515;SDS011;11424;48.860;9.624;2022-12-18T10:31:13;53.7;;;183.9;;
22515;SDS011;11424;48.860;9.624;2022-12-18T10:36:12;57.8;;;200;;
22515;SDS011;11424;48.860;9.624;2022-12-18T10:41:23;55.5;;;191.3;;
22515;SDS011;11424;48.860;9.624;2022-12-18T10:46:12;53.7;;;177.9;;
22515;SDS011;11424;48.860;9.624;2022-12-18T10:51:18;49.6;;;168.3;;
22515;SDS011;11424;48.860;9.624;2022-12-18T10:56:12;51.3;;;173.6;;
22515;SDS011;11424;48.860;9.624;2022-12-18T11:01:12;48.9;;;168.7;;
22515;SDS011;11424;48.860;9.624;2022-12-18T11:06:12;68.5;;;236;;
22515;SDS011;11424;48.860;9.624;2022-12-18T11:11:15;50.9;;;169.8;;
22515;SDS011;11424;48.860;9.624;2022-12-18T11:16:17;41.4;;;133.6;;
22515;SDS011;11424;48.860;9.624;2022-12-18T11:21:12;44.7;;;148.1;;
22515;SDS011;11424;48.860;9.624;2022-12-18T11:26:12;45;;;144.2;;
22515;SDS011;11424;48.860;9.624;2022-12-18T11:31:16;47.7;;;151.8;;
22515;SDS011;11424;48.860;9.624;2022-12-18T11:36:12;58;;;186.9;;
22515;SDS011;11424;48.860;9.624;2022-12-18T11:41:15;49.4;;;154.9;;
22515;SDS011;11424;48.860;9.624;2022-12-18T11:46:13;45.3;;;139.4;;
22515;SDS011;11424;48.860;9.624;2022-12-18T11:51:13;38.7;;;117.8;;
22515;SDS011;11424;48.860;9.624;2022-12-18T11:56:17;46.3;;;146.3;;
22515;SDS011;11424;48.860;9.624;2022-12-18T12:01:16;32.2;;;98.5;;
22515;SDS011;11424;48.860;9.624;2022-12-18T12:06:13;34.8;;;103.1;;
22515;SDS011;11424;48.860;9.624;2022-12-18T12:11:13;34.4;;;107;;
22515;SDS011;11424;48.860;9.624;2022-12-18T12:16:15;35.5;;;106.5;;
22515;SDS011;11424;48.860;9.624;2022-12-18T12:21:13;39.8;;;118.4;;
22515;SDS011;11424;48.860;9.624;2022-12-18T12:26:13;37.1;;;111.5;;
22515;SDS011;11424;48.860;9.624;2022-12-18T12:31:13;32.1;;;95.6;;
22515;SDS011;11424;48.860;9.624;2022-12-18T12:36:14;26.2;;;75.9;;
22515;SDS011;11424;48.860;9.624;2022-12-18T12:41:12;27.1;;;77.2;;
22515;SDS011;11424;48.860;9.624;2022-12-18T12:46:12;27.6;;;82.7;;
22515;SDS011;11424;48.860;9.624;2022-12-18T12:51:14;21;;;57.9;;
22515;SDS011;11424;48.860;9.624;2022-12-18T12:56:13;24;;;65.8;;
22515;SDS011;11424;48.860;9.624;2022-12-18T13:01:14;22.4;;;62.3;;
22515;SDS011;11424;48.860;9.624;2022-12-18T13:06:12;22.4;;;59.9;;
22515;SDS011;11424;48.860;9.624;2022-12-18T13:11:14;23.6;;;65.1;;
22515;SDS011;11424;48.860;9.624;2022-12-18T13:16:12;26.5;;;74.8;;
22515;SDS011;11424;48.860;9.624;2022-12-18T13:21:14;21.2;;;52.5;;
22515;SDS011;11424;48.860;9.624;2022-12-18T13:26:28;23.5;;;58.1;;
22515;SDS011;11424;48.860;9.624;2022-12-18T13:31:12;33.6;;;77.9;;
22515;SDS011;11424;48.860;9.624;2022-12-18T13:36:13;31.9;;;73.3;;
22515;SDS011;11424;48.860;9.624;2022-12-18T13:41:27;28.3;;;65.3;;
22515;SDS011;11424;48.860;9.624;2022-12-18T13:46:27;30;;;70.9;;
22515;SDS011;11424;48.860;9.624;2022-12-18T13:51:12;28;;;61.9;;
22515;SDS011;11424;48.860;9.624;2022-12-18T13:56:15;27.8;;;63.7;;
22515;SDS011;11424;48.860;9.624;2022-12-18T14:01:21;16.7;;;41.9;;
22515;SDS011;11424;48.860;9.624;2022-12-18T14:06:12;19.3;;;49.2;;
22515;SDS011;11424;48.860;9.624;2022-12-18T14:11:17;24.4;;;53.3;;
22515;SDS011;11424;48.860;9.624;2022-12-18T14:16:13;25.6;;;56.8;;
22515;SDS011;11424;48.860;9.624;2022-12-18T14:21:20;29;;;66.5;;
22515;SDS011;11424;48.860;9.624;2022-12-18T14:26:20;26.6;;;62.4;;
22515;SDS011;11424;48.860;9.624;2022-12-18T14:31:16;28.1;;;65.2;;
22515;SDS011;11424;48.860;9.624;2022-12-18T14:36:14;28.1;;;68;;
22515;SDS011;11424;48.860;9.624;2022-12-18T14:41:13;34.8;;;82.7;;
22515;SDS011;11424;48.860;9.624;2022-12-18T14:46:25;20.8;;;54.3;;
22515;SDS011;11424;48.860;9.624;2022-12-18T14:51:15;31.4;;;77.3;;
22515;SDS011;11424;48.860;9.624;2022-12-18T14:56:13;40.9;;;102.1;;
22515;SDS011;11424;48.860;9.624;2022-12-18T15:01:17;35;;;87.5;;
22515;SDS011;11424;48.860;9.624;2022-12-18T15:06:16;53.3;;;155.1;;
22515;SDS011;11424;48.860;9.624;2022-12-18T15:11:29;45.6;;;122;;
22515;SDS011;11424;48.860;9.624;2022-12-18T15:16:12;48.8;;;134.2;;
22515;SDS011;11424;48.860;9.624;2022-12-18T15:21:14;51.9;;;147.1;;
22515;SDS011;11424;48.860;9.624;2022-12-18T15:26:13;53.1;;;127.7;;
22515;SDS011;11424;48.860;9.624;2022-12-18T15:31:21;60.1;;;161.5;;
22515;SDS011;11424;48.860;9.624;2022-12-18T15:36:13;61.7;;;156.3;;
22515;SDS011;11424;48.860;9.624;2022-12-18T15:41:12;54.4;;;144.9;;
22515;SDS011;11424;48.860;9.624;2022-12-18T15:46:12;63.2;;;176.5;;
22515;SDS011;11424;48.860;9.624;2022-12-18T15:51:13;57.9;;;158;;
22515;SDS011;11424;48.860;9.624;2022-12-18T15:56:12;92.6;;;271.8;;
22515;SDS011;11424;48.860;9.624;2022-12-18T16:01:12;53.3;;;148.1;;
22515;SDS011;11424;48.860;9.624;2022-12-18T16:06:12;51.8;;;145.3;;
22515;SDS011;11424;48.860;9.624;2022-12-18T16:11:16;30.9;;;82.9;;
22515;SDS011;11424;48.860;9.624;2022-12-18T16:16:12;32;;;88.1;;
22515;SDS011;11424;48.860;9.624;2022-12-18T16:21:12;29.4;;;80.4;;
22515;SDS011;11424;48.860;9.624;2022-12-18T16:26:12;30.7;;;81.6;;
22515;SDS011;11424;48.860;9.624;2022-12-18T16:31:12;54.1;;;150.2;;
22515;SDS011;11424;48.860;9.624;2022-12-18T16:36:12;57.6;;;160;;
22515;SDS011;11424;48.860;9.624;2022-12-18T16:41:15;55.9;;;158.5;;
22515;SDS011;11424;48.860;9.624;2022-12-18T16:46:12;59.9;;;165.5;;
22515;SDS011;11424;48.860;9.624;2022-12-18T16:51:12;50.1;;;133.9;;
22515;SDS011;11424;48.860;9.624;2022-12-18T16:56:12;29.7;;;77.6;;
22515;SDS011;11424;48.860;9.624;2022-12-18T17:01:12;30.9;;;84.4;;
22515;SDS011;11424;48.860;9.624;2022-12-18T17:06:12;27.8;;;73.5;;
22515;SDS011;11424;48.860;9.624;2022-12-18T17:11:12;56.3;;;159.4;;
22515;SDS011;11424;48.860;9.624;2022-12-18T17:16:12;61.7;;;179.7;;
22515;SDS011;11424;48.860;9.624;2022-12-18T17:21:12;73.4;;;205.4;;
22515;SDS011;11424;48.860;9.624;2022-12-18T17:26:12;63.5;;;178.8;;
22515;SDS011;11424;48.860;9.624;2022-12-18T17:31:16;64.9;;;185.3;;
22515;SDS011;11424;48.860;9.624;2022-12-18T17:36:12;55.7;;;160.3;;
22515;SDS011;11424;48.860;9.624;2022-12-18T17:41:12;38.5;;;96.2;;
22515;SDS011;11424;48.860;9.624;2022-12-18T17:46:12;49.2;;;126.3;;
22515;SDS011;11424;48.860;9.624;2022-12-18T17:51:13;67.4;;;187.5;;
22515;SDS011;11424;48.860;9.624;2022-12-18T17:56:13;68.7;;;193;;
22515;SDS011;11424;48.860;9.624;2022-12-18T18:01:13;66.2;;;190.3;;
22515;SDS011;11424;48.860;9.624;2022-12-18T18:06:12;57.7;;;166.7;;
22515;SDS011;11424;48.860;9.624;2022-12-18T18:11:13;75.3;;;215.5;;
22515;SDS011;11424;48.860;9.624;2022-12-18T18:16:12;50.6;;;132.2;;
22515;SDS011;11424;48.860;9.624;2022-12-18T18:21:12;49.4;;;132.8;;
22515;SDS011;11424;48.860;9.624;2022-12-18T18:26:12;35.1;;;95.6;;
22515;SDS011;11424;48.860;9.624;2022-12-18T18:31:12;46.1;;;121.6;;
22515;SDS011;11424;48.860;9.624;2022-12-18T18:36:12;50.3;;;127.4;;
22515;SDS011;11424;48.860;9.624;2022-12-18T18:41:12;44.2;;;113.3;;
22515;SDS011;11424;48.860;9.624;2022-12-18T18:46:13;49.8;;;125.3;;
22515;SDS011;11424;48.860;9.624;2022-12-18T18:51:13;48.8;;;119.1;;
22515;SDS011;11424;48.860;9.624;2022-12-18T18:56:13;39.3;;;95.5;;
22515;SDS011;11424;48.860;9.624;2022-12-18T19:01:13;49.3;;;125.7;;
22515;SDS011;11424;48.860;9.624;2022-12-18T19:06:13;45.4;;;113.4;;
22515;SDS011;11424;48.860;9.624;2022-12-18T19:11:12;54.7;;;147.1;;
22515;SDS011;11424;48.860;9.624;2022-12-18T19:16:12;44.9;;;111.1;;
22515;SDS011;11424;48.860;9.624;2022-12-18T19:21:12;34.4;;;81;;
22515;SDS011;11424;48.860;9.624;2022-12-18T19:26:12;37.4;;;90.9;;
22515;SDS011;11424;48.860;9.624;2022-12-18T19:31:13;35.7;;;88.2;;
22515;SDS011;11424;48.860;9.624;2022-12-18T19:36:13;41.1;;;98.9;;
22515;SDS011;11424;48.860;9.624;2022-12-18T19:41:13;41.6;;;99;;
22515;SDS011;11424;48.860;9.624;2022-12-18T19:46:13;39.9;;;93.8;;
22515;SDS011;11424;48.860;9.624;2022-12-18T19:51:13;21.3;;;50.9;;
22515;SDS011;11424;48.860;9.624;2022-12-18T19:56:13;32.9;;;75.9;;
22515;SDS011;11424;48.860;9.624;2022-12-18T20:01:12;32.5;;;76.2;;
22515;SDS011;11424;48.860;9.624;2022-12-18T20:06:13;31.7;;;77.1;;
22515;SDS011;11424;48.860;9.624;2022-12-18T20:11:12;16.2;;;38;;
22515;SDS011;11424;48.860;9.624;2022-12-18T20:16:12;21.4;;;47.3;;
22515;SDS011;11424;48.860;9.624;2022-12-18T20:21:12;23.2;;;57.9;;
22515;SDS011;11424;48.860;9.624;2022-12-18T20:26:12;27.3;;;73.4;;
22515;SDS011;11424;48.860;9.624;2022-12-18T20:31:12;28;;;78.3;;
22515;SDS011;11424;48.860;9.624;2022-12-18T20:36:13;29.7;;;86.4;;
22515;SDS011;11424;48.860;9.624;2022-12-18T20:41:13;28.4;;;84.7;;
22515;SDS011;11424;48.860;9.624;2022-12-18T20:46:13;34.1;;;101.4;;
22515;SDS011;11424;48.860;9.624;2022-12-18T20:51:13;25.4;;;71.9;;
22515;SDS011;11424;48.860;9.624;2022-12-18T20:56:14;38.4;;;122.1;;
22515;SDS011;11424;48.860;9.624;2022-12-18T21:01:13;29.3;;;86.4;;
22515;SDS011;11424;48.860;9.624;2022-12-18T21:06:12;25.4;;;71.6;;
22515;SDS011;11424;48.860;9.624;2022-12-18T21:11:13;22.8;;;64.2;;
22515;SDS011;11424;48.860;9.624;2022-12-18T21:16:12;32;;;95.1;;
22515;SDS011;11424;48.860;9.624;2022-12-18T21:21:12;27;;;78.2;;
22515;SDS011;11424;48.860;9.624;2022-12-18T21:26:14;29;;;85.3;;
22515;SDS011;11424;48.860;9.624;2022-12-18T21:31:12;29.4;;;89.1;;
22515;SDS011;11424;48.860;9.624;2022-12-18T21:36:12;27.6;;;81.7;;
22515;SDS011;11424;48.860;9.624;2022-12-18T21:41:12;29.7;;;89.3;;
22515;SDS011;11424;48.860;9.624;2022-12-18T21:46:12;28;;;78.6;;
22515;SDS011;11424;48.860;9.624;2022-12-18T21:51:12;28.1;;;78.9;;
22515;SDS011;11424;48.860;9.624;2022-12-18T21:56:12;27.5;;;79.1;;
22515;SDS011;11424;48.860;9.624;2022-12-18T22:01:12;24.3;;;65.6;;
22515;SDS011;11424;48.860;9.624;2022-12-18T22:06:12;27.9;;;70.8;;
22515;SDS011;11424;48.860;9.624;2022-12-18T22:11:12;25.9;;;67.8;;
22515;SDS011;11424;48.860;9.624;2022-12-18T22:16:12;25.7;;;68.2;;
22515;SDS011;11424;48.860;9.624;2022-12-18T22:21:19;25;;;64.1;;
22515;SDS011;11424;48.860;9.624;2022-12-18T22:26:12;24.1;;;61.2;;
22515;SDS011;11424;48.860;9.624;2022-12-18T22:31:12;18.9;;;49.8;;
22515;SDS011;11424;48.860;9.624;2022-12-18T22:36:12;24.4;;;64.8;;
22515;SDS011;11424;48.860;9.624;2022-12-18T22:41:12;24.8;;;66;;
22515;SDS011;11424;48.860;9.624;2022-12-18T22:46:13;28.8;;;78.3;;
22515;SDS011;11424;48.860;9.624;2022-12-18T22:51:13;16.9;;;43.7;;
22515;SDS011;11424;48.860;9.624;2022-12-18T22:56:12;18.8;;;48.7;;
22515;SDS011;11424;48.860;9.624;2022-12-18T23:01:16;17.4;;;44.8;;
22515;SDS011;11424;48.860;9.624;2022-12-18T23:06:12;18.7;;;50.1;;
22515;SDS011;11424;48.860;9.624;2022-12-18T23:11:13;19.4;;;52.1;;
22515;SDS011;11424;48.860;9.624;2022-12-18T23:16:13;19.3;;;51.6;;
22515;SDS011;11424;48.860;9.624;2022-12-18T23:21:13;18.7;;;49.9;;
22515;SDS011;11424;48.860;9.624;2022-12-18T23:26:14;21.4;;;56.6;;
22515;SDS011;11424;48.860;9.624;2022-12-18T23:31:13;21.2;;;52.9;;
22515;SDS011;11424;48.860;9.624;2022-12-18T23:36:12;18.1;;;45.7;;
22515;SDS011;11424;48.860;9.624;2022-12-18T23:41:14;16;;;39.7;;
22515;SDS011;11424;48.860;9.624;2022-12-18T23:46:15;17.2;;;44;;
22515;SDS011;11424;48.860;9.624;2022-12-18T23:51:13;16.4;;;41.1;;
22515;SDS011;11424;48.860;9.624;2022-12-18T23:56:12;18.7;;;46.2;;
